sensor_id;sensor_type;location;lat;lon;timestamp;P1;durP1;ratioP1;P2;durP2;ratioP2
7605;SDS011;3844;53.360;9.738;2022-11-12T00:01:44;7.25;;;4.38;;
7605;SDS011;3844;53.360;9.738;2022-11-12T00:03:44;7.10;;;4.20;;
7605;SDS011;3844;53.360;9.738;2022-11-12T00:05:45;6.72;;;4.07;;
7605;SDS011;3844;53.360;9.738;2022-11-12T00:07:48;6.80;;;3.93;;
7605;SDS011;3844;53.360;9.738;2022-11-12T00:09:48;7.80;;;4.22;;
7605;SDS011;3844;53.360;9.738;2022-11-12T00:11:49;7.97;;;4.45;;
7605;SDS011;3844;53.360;9.738;2022-11-12T00:13:50;9.60;;;4.50;;
7605;SDS011;3844;53.360;9.738;2022-11-12T00:15:50;8.45;;;4.00;;
7605;SDS011;3844;53.360;9.738;2022-11-12T00:17:51;7.88;;;3.95;;
7605;SDS011;3844;53.360;9.738;2022-11-12T00:19:52;8.02;;;4.30;;
7605;SDS011;3844;53.360;9.738;2022-11-12T00:21:53;8.13;;;4.38;;
7605;SDS011;3844;53.360;9.738;2022-11-12T00:23:54;8.20;;;4.22;;
7605;SDS011;3844;53.360;9.738;2022-11-12T00:25:58;7.50;;;4.32;;
7605;SDS011;3844;53.360;9.738;2022-11-12T00:28:04;9.65;;;5.07;;
7605;SDS011;3844;53.360;9.738;2022-11-12T00:30:06;9.48;;;4.60;;
7605;SDS011;3844;53.360;9.738;2022-11-12T00:32:07;8.82;;;4.40;;
7605;SDS011;3844;53.360;9.738;2022-11-12T00:34:09;8.07;;;4.75;;
7605;SDS011;3844;53.360;9.738;2022-11-12T00:36:09;10.43;;;5.25;;
7605;SDS011;3844;53.360;9.738;2022-11-12T00:38:10;8.10;;;4.88;;
7605;SDS011;3844;53.360;9.738;2022-11-12T00:40:11;8.68;;;5.05;;
7605;SDS011;3844;53.360;9.738;2022-11-12T00:42:12;7.70;;;4.25;;
7605;SDS011;3844;53.360;9.738;2022-11-12T00:44:12;9.15;;;5.03;;
7605;SDS011;3844;53.360;9.738;2022-11-12T00:46:13;10.07;;;5.80;;
7605;SDS011;3844;53.360;9.738;2022-11-12T00:48:14;10.73;;;5.70;;
7605;SDS011;3844;53.360;9.738;2022-11-12T00:50:14;9.10;;;5.25;;
7605;SDS011;3844;53.360;9.738;2022-11-12T00:52:15;8.73;;;5.03;;
7605;SDS011;3844;53.360;9.738;2022-11-12T00:54:16;9.75;;;5.60;;
7605;SDS011;3844;53.360;9.738;2022-11-12T00:56:17;11.13;;;6.13;;
7605;SDS011;3844;53.360;9.738;2022-11-12T00:58:17;10.30;;;5.82;;
7605;SDS011;3844;53.360;9.738;2022-11-12T01:00:18;9.30;;;5.47;;
7605;SDS011;3844;53.360;9.738;2022-11-12T01:02:19;10.00;;;5.47;;
7605;SDS011;3844;53.360;9.738;2022-11-12T01:04:21;10.88;;;5.43;;
7605;SDS011;3844;53.360;9.738;2022-11-12T01:06:21;11.18;;;6.15;;
7605;SDS011;3844;53.360;9.738;2022-11-12T01:08:22;8.98;;;5.55;;
7605;SDS011;3844;53.360;9.738;2022-11-12T01:10:23;9.18;;;5.05;;
7605;SDS011;3844;53.360;9.738;2022-11-12T01:12:23;10.43;;;5.80;;
7605;SDS011;3844;53.360;9.738;2022-11-12T01:14:24;10.48;;;5.20;;
7605;SDS011;3844;53.360;9.738;2022-11-12T01:16:26;10.02;;;5.20;;
7605;SDS011;3844;53.360;9.738;2022-11-12T01:20:29;10.93;;;6.03;;
7605;SDS011;3844;53.360;9.738;2022-11-12T01:22:30;13.30;;;5.93;;
7605;SDS011;3844;53.360;9.738;2022-11-12T01:24:30;9.63;;;5.78;;
7605;SDS011;3844;53.360;9.738;2022-11-12T01:26:31;12.27;;;6.30;;
7605;SDS011;3844;53.360;9.738;2022-11-12T01:28:32;10.30;;;5.25;;
7605;SDS011;3844;53.360;9.738;2022-11-12T01:30:33;12.10;;;6.20;;
7605;SDS011;3844;53.360;9.738;2022-11-12T01:32:34;11.07;;;5.45;;
7605;SDS011;3844;53.360;9.738;2022-11-12T01:34:36;11.68;;;5.55;;
7605;SDS011;3844;53.360;9.738;2022-11-12T01:36:37;8.93;;;5.47;;
7605;SDS011;3844;53.360;9.738;2022-11-12T01:38:39;9.40;;;5.70;;
7605;SDS011;3844;53.360;9.738;2022-11-12T01:40:41;10.38;;;5.88;;
7605;SDS011;3844;53.360;9.738;2022-11-12T01:42:42;10.38;;;5.60;;
7605;SDS011;3844;53.360;9.738;2022-11-12T01:44:43;11.95;;;5.65;;
7605;SDS011;3844;53.360;9.738;2022-11-12T01:48:58;13.25;;;6.75;;
7605;SDS011;3844;53.360;9.738;2022-11-12T01:51:02;13.38;;;6.65;;
7605;SDS011;3844;53.360;9.738;2022-11-12T01:53:05;12.35;;;6.22;;
7605;SDS011;3844;53.360;9.738;2022-11-12T01:55:10;10.10;;;5.82;;
7605;SDS011;3844;53.360;9.738;2022-11-12T01:57:16;11.27;;;6.30;;
7605;SDS011;3844;53.360;9.738;2022-11-12T01:59:24;11.25;;;6.03;;
7605;SDS011;3844;53.360;9.738;2022-11-12T02:01:32;11.27;;;6.10;;
7605;SDS011;3844;53.360;9.738;2022-11-12T02:03:34;12.32;;;6.68;;
7605;SDS011;3844;53.360;9.738;2022-11-12T02:05:35;13.38;;;6.78;;
7605;SDS011;3844;53.360;9.738;2022-11-12T02:07:38;12.93;;;6.93;;
7605;SDS011;3844;53.360;9.738;2022-11-12T02:09:41;15.27;;;6.93;;
7605;SDS011;3844;53.360;9.738;2022-11-12T02:11:41;14.70;;;7.57;;
7605;SDS011;3844;53.360;9.738;2022-11-12T02:15:53;12.65;;;6.35;;
7605;SDS011;3844;53.360;9.738;2022-11-12T02:17:55;11.23;;;5.90;;
7605;SDS011;3844;53.360;9.738;2022-11-12T02:19:58;13.38;;;6.88;;
7605;SDS011;3844;53.360;9.738;2022-11-12T02:24:30;12.55;;;6.47;;
7605;SDS011;3844;53.360;9.738;2022-11-12T02:26:33;13.55;;;7.25;;
7605;SDS011;3844;53.360;9.738;2022-11-12T02:28:50;13.98;;;7.07;;
7605;SDS011;3844;53.360;9.738;2022-11-12T02:30:59;15.25;;;7.65;;
7605;SDS011;3844;53.360;9.738;2022-11-12T02:33:00;14.57;;;7.22;;
7605;SDS011;3844;53.360;9.738;2022-11-12T02:35:07;14.73;;;7.25;;
7605;SDS011;3844;53.360;9.738;2022-11-12T02:37:08;15.40;;;7.03;;
7605;SDS011;3844;53.360;9.738;2022-11-12T02:39:09;15.20;;;7.50;;
7605;SDS011;3844;53.360;9.738;2022-11-12T02:41:10;13.68;;;7.20;;
7605;SDS011;3844;53.360;9.738;2022-11-12T02:43:11;12.88;;;7.40;;
7605;SDS011;3844;53.360;9.738;2022-11-12T02:45:17;15.05;;;7.32;;
7605;SDS011;3844;53.360;9.738;2022-11-12T02:47:24;14.13;;;7.07;;
7605;SDS011;3844;53.360;9.738;2022-11-12T02:49:34;13.30;;;6.70;;
7605;SDS011;3844;53.360;9.738;2022-11-12T02:51:51;12.57;;;6.78;;
7605;SDS011;3844;53.360;9.738;2022-11-12T02:54:01;13.60;;;6.75;;
7605;SDS011;3844;53.360;9.738;2022-11-12T02:56:01;13.55;;;7.53;;
7605;SDS011;3844;53.360;9.738;2022-11-12T02:58:08;15.55;;;8.20;;
7605;SDS011;3844;53.360;9.738;2022-11-12T03:00:15;15.13;;;8.05;;
7605;SDS011;3844;53.360;9.738;2022-11-12T03:02:24;15.52;;;8.32;;
7605;SDS011;3844;53.360;9.738;2022-11-12T03:04:30;15.60;;;8.57;;
7605;SDS011;3844;53.360;9.738;2022-11-12T03:06:34;15.82;;;8.77;;
7605;SDS011;3844;53.360;9.738;2022-11-12T03:08:39;16.30;;;9.23;;
7605;SDS011;3844;53.360;9.738;2022-11-12T03:10:49;16.27;;;8.77;;
7605;SDS011;3844;53.360;9.738;2022-11-12T03:12:50;18.63;;;10.13;;
7605;SDS011;3844;53.360;9.738;2022-11-12T03:14:57;16.23;;;9.00;;
7605;SDS011;3844;53.360;9.738;2022-11-12T03:17:07;18.40;;;9.40;;
7605;SDS011;3844;53.360;9.738;2022-11-12T03:19:15;16.90;;;9.32;;
7605;SDS011;3844;53.360;9.738;2022-11-12T03:21:16;18.67;;;9.95;;
7605;SDS011;3844;53.360;9.738;2022-11-12T03:23:28;14.60;;;8.13;;
7605;SDS011;3844;53.360;9.738;2022-11-12T03:25:31;17.55;;;8.55;;
7605;SDS011;3844;53.360;9.738;2022-11-12T03:27:40;15.32;;;8.70;;
7605;SDS011;3844;53.360;9.738;2022-11-12T03:29:51;17.00;;;8.85;;
7605;SDS011;3844;53.360;9.738;2022-11-12T03:31:52;19.70;;;10.00;;
7605;SDS011;3844;53.360;9.738;2022-11-12T03:34:05;17.27;;;9.32;;
7605;SDS011;3844;53.360;9.738;2022-11-12T03:36:09;19.38;;;9.60;;
7605;SDS011;3844;53.360;9.738;2022-11-12T03:38:22;18.17;;;9.95;;
7605;SDS011;3844;53.360;9.738;2022-11-12T03:40:32;17.30;;;8.95;;
7605;SDS011;3844;53.360;9.738;2022-11-12T03:42:36;20.50;;;10.85;;
7605;SDS011;3844;53.360;9.738;2022-11-12T03:44:52;25.48;;;12.57;;
7605;SDS011;3844;53.360;9.738;2022-11-12T03:46:53;22.83;;;11.52;;
7605;SDS011;3844;53.360;9.738;2022-11-12T03:51:26;22.02;;;11.05;;
7605;SDS011;3844;53.360;9.738;2022-11-12T03:53:36;22.73;;;11.25;;
7605;SDS011;3844;53.360;9.738;2022-11-12T03:55:57;20.33;;;10.45;;
7605;SDS011;3844;53.360;9.738;2022-11-12T03:58:10;21.47;;;11.50;;
7605;SDS011;3844;53.360;9.738;2022-11-12T04:00:18;19.45;;;10.95;;
7605;SDS011;3844;53.360;9.738;2022-11-12T04:02:20;22.50;;;10.88;;
7605;SDS011;3844;53.360;9.738;2022-11-12T04:04:31;20.17;;;10.80;;
7605;SDS011;3844;53.360;9.738;2022-11-12T04:06:54;23.42;;;11.93;;
7605;SDS011;3844;53.360;9.738;2022-11-12T04:09:20;21.63;;;11.43;;
7605;SDS011;3844;53.360;9.738;2022-11-12T04:11:29;22.92;;;11.90;;
7605;SDS011;3844;53.360;9.738;2022-11-12T04:13:31;22.23;;;10.93;;
7605;SDS011;3844;53.360;9.738;2022-11-12T04:15:38;20.58;;;10.43;;
7605;SDS011;3844;53.360;9.738;2022-11-12T04:18:04;21.42;;;12.10;;
7605;SDS011;3844;53.360;9.738;2022-11-12T04:20:24;22.13;;;11.90;;
7605;SDS011;3844;53.360;9.738;2022-11-12T04:22:44;22.52;;;11.35;;
7605;SDS011;3844;53.360;9.738;2022-11-12T04:24:57;22.35;;;11.25;;
7605;SDS011;3844;53.360;9.738;2022-11-12T04:27:33;22.92;;;11.93;;
7605;SDS011;3844;53.360;9.738;2022-11-12T04:29:41;22.95;;;12.10;;
7605;SDS011;3844;53.360;9.738;2022-11-12T04:32:04;20.77;;;11.18;;
7605;SDS011;3844;53.360;9.738;2022-11-12T04:34:28;23.65;;;12.27;;
7605;SDS011;3844;53.360;9.738;2022-11-12T04:36:51;24.55;;;12.25;;
7605;SDS011;3844;53.360;9.738;2022-11-12T04:39:01;24.52;;;12.25;;
7605;SDS011;3844;53.360;9.738;2022-11-12T04:41:02;22.30;;;11.55;;
7605;SDS011;3844;53.360;9.738;2022-11-12T04:43:24;20.83;;;10.65;;
7605;SDS011;3844;53.360;9.738;2022-11-12T04:46:02;26.48;;;13.48;;
7605;SDS011;3844;53.360;9.738;2022-11-12T04:48:09;28.33;;;14.10;;
7605;SDS011;3844;53.360;9.738;2022-11-12T04:50:15;23.63;;;12.52;;
7605;SDS011;3844;53.360;9.738;2022-11-12T04:52:17;25.35;;;12.07;;
7605;SDS011;3844;53.360;9.738;2022-11-12T04:54:18;26.98;;;14.20;;
7605;SDS011;3844;53.360;9.738;2022-11-12T04:56:19;26.33;;;14.23;;
7605;SDS011;3844;53.360;9.738;2022-11-12T04:58:20;27.92;;;13.30;;
7605;SDS011;3844;53.360;9.738;2022-11-12T05:00:21;27.33;;;13.23;;
7605;SDS011;3844;53.360;9.738;2022-11-12T05:02:22;24.83;;;13.55;;
7605;SDS011;3844;53.360;9.738;2022-11-12T05:04:23;33.50;;;16.10;;
7605;SDS011;3844;53.360;9.738;2022-11-12T05:06:26;26.67;;;14.20;;
7605;SDS011;3844;53.360;9.738;2022-11-12T05:08:46;27.60;;;14.02;;
7605;SDS011;3844;53.360;9.738;2022-11-12T05:12:53;27.83;;;13.77;;
7605;SDS011;3844;53.360;9.738;2022-11-12T05:14:54;26.02;;;13.00;;
7605;SDS011;3844;53.360;9.738;2022-11-12T05:16:55;25.42;;;13.75;;
7605;SDS011;3844;53.360;9.738;2022-11-12T05:18:56;22.73;;;11.82;;
7605;SDS011;3844;53.360;9.738;2022-11-12T05:20:56;28.67;;;13.95;;
7605;SDS011;3844;53.360;9.738;2022-11-12T05:22:57;24.02;;;12.48;;
7605;SDS011;3844;53.360;9.738;2022-11-12T05:24:57;24.90;;;12.73;;
7605;SDS011;3844;53.360;9.738;2022-11-12T05:26:58;25.30;;;12.98;;
7605;SDS011;3844;53.360;9.738;2022-11-12T05:28:59;26.85;;;14.90;;
7605;SDS011;3844;53.360;9.738;2022-11-12T05:30:59;26.52;;;13.77;;
7605;SDS011;3844;53.360;9.738;2022-11-12T05:33:00;23.25;;;12.35;;
7605;SDS011;3844;53.360;9.738;2022-11-12T05:35:01;25.35;;;12.35;;
7605;SDS011;3844;53.360;9.738;2022-11-12T05:37:02;28.58;;;14.15;;
7605;SDS011;3844;53.360;9.738;2022-11-12T05:39:05;24.52;;;13.48;;
7605;SDS011;3844;53.360;9.738;2022-11-12T05:41:06;27.42;;;13.70;;
7605;SDS011;3844;53.360;9.738;2022-11-12T05:43:06;26.85;;;13.70;;
7605;SDS011;3844;53.360;9.738;2022-11-12T05:45:07;23.63;;;11.93;;
7605;SDS011;3844;53.360;9.738;2022-11-12T05:47:08;27.83;;;13.98;;
7605;SDS011;3844;53.360;9.738;2022-11-12T05:49:09;30.85;;;14.00;;
7605;SDS011;3844;53.360;9.738;2022-11-12T05:51:10;26.90;;;13.85;;
7605;SDS011;3844;53.360;9.738;2022-11-12T05:55:15;26.40;;;12.00;;
7605;SDS011;3844;53.360;9.738;2022-11-12T05:57:15;23.50;;;12.60;;
7605;SDS011;3844;53.360;9.738;2022-11-12T05:59:16;25.77;;;12.48;;
7605;SDS011;3844;53.360;9.738;2022-11-12T06:01:17;21.73;;;12.10;;
7605;SDS011;3844;53.360;9.738;2022-11-12T06:03:18;23.35;;;11.15;;
7605;SDS011;3844;53.360;9.738;2022-11-12T06:05:18;22.58;;;11.13;;
7605;SDS011;3844;53.360;9.738;2022-11-12T06:07:19;21.60;;;11.35;;
7605;SDS011;3844;53.360;9.738;2022-11-12T06:09:20;21.48;;;11.00;;
7605;SDS011;3844;53.360;9.738;2022-11-12T06:11:20;22.85;;;11.23;;
7605;SDS011;3844;53.360;9.738;2022-11-12T06:13:22;24.00;;;12.13;;
7605;SDS011;3844;53.360;9.738;2022-11-12T06:15:23;21.67;;;11.50;;
7605;SDS011;3844;53.360;9.738;2022-11-12T06:17:26;19.83;;;10.57;;
7605;SDS011;3844;53.360;9.738;2022-11-12T06:19:26;24.75;;;11.52;;
7605;SDS011;3844;53.360;9.738;2022-11-12T06:21:27;22.38;;;11.60;;
7605;SDS011;3844;53.360;9.738;2022-11-12T06:23:28;24.20;;;11.07;;
7605;SDS011;3844;53.360;9.738;2022-11-12T06:25:28;19.77;;;10.35;;
7605;SDS011;3844;53.360;9.738;2022-11-12T06:27:29;20.92;;;10.88;;
7605;SDS011;3844;53.360;9.738;2022-11-12T06:29:30;23.92;;;12.05;;
7605;SDS011;3844;53.360;9.738;2022-11-12T06:31:31;26.00;;;12.00;;
7605;SDS011;3844;53.360;9.738;2022-11-12T06:33:32;26.42;;;12.57;;
7605;SDS011;3844;53.360;9.738;2022-11-12T06:35:32;22.40;;;12.15;;
7605;SDS011;3844;53.360;9.738;2022-11-12T06:37:33;25.17;;;12.63;;
7605;SDS011;3844;53.360;9.738;2022-11-12T06:39:33;20.20;;;11.23;;
7605;SDS011;3844;53.360;9.738;2022-11-12T06:41:34;20.60;;;11.30;;
7605;SDS011;3844;53.360;9.738;2022-11-12T06:43:35;24.48;;;12.82;;
7605;SDS011;3844;53.360;9.738;2022-11-12T06:45:36;27.85;;;14.38;;
7605;SDS011;3844;53.360;9.738;2022-11-12T06:47:37;27.13;;;13.93;;
7605;SDS011;3844;53.360;9.738;2022-11-12T06:49:38;29.33;;;14.52;;
7605;SDS011;3844;53.360;9.738;2022-11-12T06:51:38;27.95;;;13.68;;
7605;SDS011;3844;53.360;9.738;2022-11-12T06:53:39;26.30;;;13.43;;
7605;SDS011;3844;53.360;9.738;2022-11-12T06:55:40;27.55;;;13.77;;
7605;SDS011;3844;53.360;9.738;2022-11-12T06:57:40;27.40;;;13.13;;
7605;SDS011;3844;53.360;9.738;2022-11-12T06:59:41;25.23;;;13.27;;
7605;SDS011;3844;53.360;9.738;2022-11-12T07:01:42;23.77;;;11.55;;
7605;SDS011;3844;53.360;9.738;2022-11-12T07:03:43;25.08;;;12.90;;
7605;SDS011;3844;53.360;9.738;2022-11-12T07:05:44;24.02;;;12.10;;
7605;SDS011;3844;53.360;9.738;2022-11-12T07:07:44;24.45;;;12.55;;
7605;SDS011;3844;53.360;9.738;2022-11-12T07:09:45;23.25;;;11.45;;
7605;SDS011;3844;53.360;9.738;2022-11-12T07:11:46;21.83;;;11.45;;
7605;SDS011;3844;53.360;9.738;2022-11-12T07:13:46;22.23;;;11.95;;
7605;SDS011;3844;53.360;9.738;2022-11-12T07:15:47;24.95;;;11.93;;
7605;SDS011;3844;53.360;9.738;2022-11-12T07:17:48;20.17;;;10.70;;
7605;SDS011;3844;53.360;9.738;2022-11-12T07:19:48;21.00;;;10.10;;
7605;SDS011;3844;53.360;9.738;2022-11-12T07:21:49;30.75;;;12.80;;
7605;SDS011;3844;53.360;9.738;2022-11-12T07:23:50;23.90;;;11.75;;
7605;SDS011;3844;53.360;9.738;2022-11-12T07:25:59;21.65;;;11.43;;
7605;SDS011;3844;53.360;9.738;2022-11-12T07:28:03;25.52;;;12.20;;
7605;SDS011;3844;53.360;9.738;2022-11-12T07:30:04;20.48;;;10.80;;
7605;SDS011;3844;53.360;9.738;2022-11-12T07:32:05;23.58;;;11.57;;
7605;SDS011;3844;53.360;9.738;2022-11-12T07:34:06;21.40;;;11.38;;
7605;SDS011;3844;53.360;9.738;2022-11-12T07:36:07;26.48;;;12.75;;
7605;SDS011;3844;53.360;9.738;2022-11-12T07:38:10;23.20;;;11.27;;
7605;SDS011;3844;53.360;9.738;2022-11-12T07:40:11;22.55;;;11.20;;
7605;SDS011;3844;53.360;9.738;2022-11-12T07:42:11;20.85;;;10.90;;
7605;SDS011;3844;53.360;9.738;2022-11-12T07:44:12;22.98;;;12.32;;
7605;SDS011;3844;53.360;9.738;2022-11-12T07:46:14;21.25;;;11.38;;
7605;SDS011;3844;53.360;9.738;2022-11-12T07:48:16;20.13;;;11.20;;
7605;SDS011;3844;53.360;9.738;2022-11-12T07:50:17;17.48;;;10.20;;
7605;SDS011;3844;53.360;9.738;2022-11-12T07:52:18;17.48;;;9.73;;
7605;SDS011;3844;53.360;9.738;2022-11-12T07:54:18;22.77;;;11.48;;
7605;SDS011;3844;53.360;9.738;2022-11-12T07:56:20;20.63;;;10.38;;
7605;SDS011;3844;53.360;9.738;2022-11-12T07:58:22;20.25;;;10.77;;
7605;SDS011;3844;53.360;9.738;2022-11-12T08:00:24;22.27;;;11.90;;
7605;SDS011;3844;53.360;9.738;2022-11-12T08:02:24;20.88;;;10.75;;
7605;SDS011;3844;53.360;9.738;2022-11-12T08:04:25;23.80;;;11.10;;
7605;SDS011;3844;53.360;9.738;2022-11-12T08:06:27;20.95;;;10.98;;
7605;SDS011;3844;53.360;9.738;2022-11-12T08:08:28;20.35;;;11.13;;
7605;SDS011;3844;53.360;9.738;2022-11-12T08:10:29;23.42;;;11.88;;
7605;SDS011;3844;53.360;9.738;2022-11-12T08:12:30;21.75;;;10.90;;
7605;SDS011;3844;53.360;9.738;2022-11-12T08:14:31;19.88;;;10.25;;
7605;SDS011;3844;53.360;9.738;2022-11-12T08:16:31;19.48;;;9.88;;
7605;SDS011;3844;53.360;9.738;2022-11-12T08:18:32;21.30;;;11.32;;
7605;SDS011;3844;53.360;9.738;2022-11-12T08:20:33;22.40;;;11.63;;
7605;SDS011;3844;53.360;9.738;2022-11-12T08:22:34;19.30;;;10.32;;
7605;SDS011;3844;53.360;9.738;2022-11-12T08:24:34;20.63;;;10.32;;
7605;SDS011;3844;53.360;9.738;2022-11-12T08:26:35;19.48;;;9.73;;
7605;SDS011;3844;53.360;9.738;2022-11-12T08:28:36;21.23;;;10.35;;
7605;SDS011;3844;53.360;9.738;2022-11-12T08:30:36;19.17;;;9.48;;
7605;SDS011;3844;53.360;9.738;2022-11-12T08:32:37;22.48;;;11.05;;
7605;SDS011;3844;53.360;9.738;2022-11-12T08:34:43;25.45;;;12.48;;
7605;SDS011;3844;53.360;9.738;2022-11-12T08:36:44;24.92;;;12.18;;
7605;SDS011;3844;53.360;9.738;2022-11-12T08:38:44;26.65;;;12.90;;
7605;SDS011;3844;53.360;9.738;2022-11-12T08:40:45;22.35;;;11.25;;
7605;SDS011;3844;53.360;9.738;2022-11-12T08:42:46;19.45;;;10.60;;
7605;SDS011;3844;53.360;9.738;2022-11-12T08:44:46;22.45;;;11.25;;
7605;SDS011;3844;53.360;9.738;2022-11-12T08:46:47;21.70;;;11.13;;
7605;SDS011;3844;53.360;9.738;2022-11-12T08:48:49;21.00;;;10.95;;
7605;SDS011;3844;53.360;9.738;2022-11-12T08:50:50;21.73;;;10.68;;
7605;SDS011;3844;53.360;9.738;2022-11-12T08:52:51;24.52;;;11.82;;
7605;SDS011;3844;53.360;9.738;2022-11-12T08:54:51;25.20;;;13.20;;
7605;SDS011;3844;53.360;9.738;2022-11-12T08:56:52;25.30;;;12.20;;
7605;SDS011;3844;53.360;9.738;2022-11-12T08:58:53;21.88;;;11.07;;
7605;SDS011;3844;53.360;9.738;2022-11-12T09:00:54;27.85;;;13.68;;
7605;SDS011;3844;53.360;9.738;2022-11-12T09:02:58;30.45;;;14.75;;
7605;SDS011;3844;53.360;9.738;2022-11-12T09:04:59;29.98;;;15.32;;
7605;SDS011;3844;53.360;9.738;2022-11-12T09:07:00;31.23;;;15.10;;
7605;SDS011;3844;53.360;9.738;2022-11-12T09:09:00;30.58;;;14.30;;
7605;SDS011;3844;53.360;9.738;2022-11-12T09:11:01;26.63;;;12.90;;
7605;SDS011;3844;53.360;9.738;2022-11-12T09:13:02;29.45;;;14.48;;
7605;SDS011;3844;53.360;9.738;2022-11-12T09:15:04;24.88;;;12.88;;
7605;SDS011;3844;53.360;9.738;2022-11-12T09:17:05;27.60;;;13.35;;
7605;SDS011;3844;53.360;9.738;2022-11-12T09:19:06;27.05;;;12.40;;
7605;SDS011;3844;53.360;9.738;2022-11-12T09:21:08;25.27;;;12.32;;
7605;SDS011;3844;53.360;9.738;2022-11-12T09:23:12;26.70;;;12.77;;
7605;SDS011;3844;53.360;9.738;2022-11-12T09:25:14;20.02;;;9.90;;
7605;SDS011;3844;53.360;9.738;2022-11-12T09:27:15;33.75;;;14.63;;
7605;SDS011;3844;53.360;9.738;2022-11-12T09:29:15;26.10;;;13.32;;
7605;SDS011;3844;53.360;9.738;2022-11-12T09:31:16;27.10;;;12.63;;
7605;SDS011;3844;53.360;9.738;2022-11-12T09:33:18;30.88;;;13.82;;
7605;SDS011;3844;53.360;9.738;2022-11-12T09:37:21;33.75;;;14.98;;
7605;SDS011;3844;53.360;9.738;2022-11-12T09:39:22;28.02;;;14.25;;
7605;SDS011;3844;53.360;9.738;2022-11-12T09:41:27;24.65;;;12.77;;
7605;SDS011;3844;53.360;9.738;2022-11-12T09:43:36;27.25;;;13.70;;
7605;SDS011;3844;53.360;9.738;2022-11-12T09:45:42;26.80;;;12.98;;
7605;SDS011;3844;53.360;9.738;2022-11-12T09:47:44;21.60;;;11.98;;
7605;SDS011;3844;53.360;9.738;2022-11-12T09:50:15;19.83;;;11.55;;
7605;SDS011;3844;53.360;9.738;2022-11-12T09:52:36;19.38;;;9.95;;
7605;SDS011;3844;53.360;9.738;2022-11-12T09:54:41;22.05;;;11.00;;
7605;SDS011;3844;53.360;9.738;2022-11-12T09:56:42;19.88;;;10.68;;
7605;SDS011;3844;53.360;9.738;2022-11-12T09:58:43;20.23;;;10.35;;
7605;SDS011;3844;53.360;9.738;2022-11-12T10:05:47;22.33;;;10.38;;
7605;SDS011;3844;53.360;9.738;2022-11-12T10:10:21;19.00;;;9.30;;
7605;SDS011;3844;53.360;9.738;2022-11-12T10:17:36;22.17;;;9.90;;
7605;SDS011;3844;53.360;9.738;2022-11-12T10:19:55;15.50;;;8.60;;
7605;SDS011;3844;53.360;9.738;2022-11-12T10:24:42;23.27;;;10.60;;
7605;SDS011;3844;53.360;9.738;2022-11-12T10:26:44;17.30;;;9.02;;
7605;SDS011;3844;53.360;9.738;2022-11-12T10:28:53;19.60;;;9.45;;
7605;SDS011;3844;53.360;9.738;2022-11-12T10:30:56;19.33;;;9.57;;
7605;SDS011;3844;53.360;9.738;2022-11-12T10:33:01;21.80;;;10.77;;
7605;SDS011;3844;53.360;9.738;2022-11-12T10:35:02;16.85;;;9.20;;
7605;SDS011;3844;53.360;9.738;2022-11-12T10:37:04;18.67;;;9.60;;
7605;SDS011;3844;53.360;9.738;2022-11-12T10:39:29;22.83;;;11.50;;
7605;SDS011;3844;53.360;9.738;2022-11-12T10:42:07;20.95;;;10.82;;
7605;SDS011;3844;53.360;9.738;2022-11-12T10:44:12;22.27;;;10.55;;
7605;SDS011;3844;53.360;9.738;2022-11-12T10:46:17;15.68;;;8.75;;
7605;SDS011;3844;53.360;9.738;2022-11-12T10:48:20;13.85;;;8.23;;
7605;SDS011;3844;53.360;9.738;2022-11-12T10:50:39;12.95;;;7.13;;
7605;SDS011;3844;53.360;9.738;2022-11-12T10:52:55;12.60;;;7.35;;
7605;SDS011;3844;53.360;9.738;2022-11-12T10:55:13;13.70;;;6.57;;
7605;SDS011;3844;53.360;9.738;2022-11-12T10:57:40;12.13;;;6.43;;
7605;SDS011;3844;53.360;9.738;2022-11-12T10:59:41;14.80;;;7.00;;
7605;SDS011;3844;53.360;9.738;2022-11-12T11:01:42;15.02;;;7.15;;
7605;SDS011;3844;53.360;9.738;2022-11-12T11:03:46;11.93;;;6.57;;
7605;SDS011;3844;53.360;9.738;2022-11-12T11:06:03;10.73;;;6.15;;
7605;SDS011;3844;53.360;9.738;2022-11-12T11:08:08;11.82;;;6.32;;
7605;SDS011;3844;53.360;9.738;2022-11-12T11:10:21;17.42;;;8.93;;
7605;SDS011;3844;53.360;9.738;2022-11-12T11:12:28;18.92;;;9.20;;
7605;SDS011;3844;53.360;9.738;2022-11-12T11:14:33;17.30;;;9.38;;
7605;SDS011;3844;53.360;9.738;2022-11-12T11:16:47;15.88;;;9.13;;
7605;SDS011;3844;53.360;9.738;2022-11-12T11:18:58;17.58;;;9.18;;
7605;SDS011;3844;53.360;9.738;2022-11-12T11:21:19;17.73;;;9.35;;
7605;SDS011;3844;53.360;9.738;2022-11-12T11:24:06;13.63;;;7.72;;
7605;SDS011;3844;53.360;9.738;2022-11-12T11:31:12;17.70;;;8.93;;
7605;SDS011;3844;53.360;9.738;2022-11-12T11:36:15;14.57;;;8.32;;
7605;SDS011;3844;53.360;9.738;2022-11-12T11:40:55;17.58;;;8.80;;
7605;SDS011;3844;53.360;9.738;2022-11-12T11:48:15;13.52;;;6.55;;
7605;SDS011;3844;53.360;9.738;2022-11-12T11:50:31;11.65;;;6.53;;
7605;SDS011;3844;53.360;9.738;2022-11-12T11:56:49;10.82;;;6.10;;
7605;SDS011;3844;53.360;9.738;2022-11-12T11:59:07;12.65;;;6.10;;
7605;SDS011;3844;53.360;9.738;2022-11-12T12:01:28;10.52;;;5.95;;
7605;SDS011;3844;53.360;9.738;2022-11-12T12:03:53;10.82;;;5.30;;
7605;SDS011;3844;53.360;9.738;2022-11-12T12:06:19;9.02;;;4.82;;
7605;SDS011;3844;53.360;9.738;2022-11-12T12:08:38;9.35;;;4.70;;
7605;SDS011;3844;53.360;9.738;2022-11-12T12:15:45;8.60;;;4.43;;
7605;SDS011;3844;53.360;9.738;2022-11-12T12:20:24;10.05;;;4.35;;
7605;SDS011;3844;53.360;9.738;2022-11-12T12:22:35;9.00;;;4.68;;
7605;SDS011;3844;53.360;9.738;2022-11-12T12:24:44;10.25;;;5.50;;
7605;SDS011;3844;53.360;9.738;2022-11-12T12:26:48;9.63;;;5.05;;
7605;SDS011;3844;53.360;9.738;2022-11-12T12:33:07;11.68;;;4.78;;
7605;SDS011;3844;53.360;9.738;2022-11-12T12:37:21;11.40;;;4.85;;
7605;SDS011;3844;53.360;9.738;2022-11-12T12:43:57;9.00;;;4.20;;
7605;SDS011;3844;53.360;9.738;2022-11-12T12:46:03;8.00;;;3.90;;
7605;SDS011;3844;53.360;9.738;2022-11-12T12:48:07;7.57;;;3.50;;
7605;SDS011;3844;53.360;9.738;2022-11-12T12:50:17;7.80;;;3.60;;
7605;SDS011;3844;53.360;9.738;2022-11-12T12:52:20;8.25;;;3.70;;
7605;SDS011;3844;53.360;9.738;2022-11-12T12:56:43;7.25;;;3.38;;
7605;SDS011;3844;53.360;9.738;2022-11-12T12:58:46;6.15;;;3.10;;
7605;SDS011;3844;53.360;9.738;2022-11-12T13:00:49;6.78;;;3.10;;
7605;SDS011;3844;53.360;9.738;2022-11-12T13:03:03;5.38;;;2.92;;
7605;SDS011;3844;53.360;9.738;2022-11-12T13:05:05;6.60;;;3.17;;
7605;SDS011;3844;53.360;9.738;2022-11-12T13:07:06;5.70;;;2.90;;
7605;SDS011;3844;53.360;9.738;2022-11-12T13:09:19;6.75;;;3.08;;
7605;SDS011;3844;53.360;9.738;2022-11-12T13:14:15;6.80;;;3.60;;
7605;SDS011;3844;53.360;9.738;2022-11-12T13:21:06;7.47;;;3.53;;
7605;SDS011;3844;53.360;9.738;2022-11-12T13:23:08;6.55;;;3.33;;
7605;SDS011;3844;53.360;9.738;2022-11-12T13:27:11;8.27;;;4.05;;
7605;SDS011;3844;53.360;9.738;2022-11-12T13:31:38;8.48;;;4.00;;
7605;SDS011;3844;53.360;9.738;2022-11-12T13:33:39;7.68;;;4.20;;
7605;SDS011;3844;53.360;9.738;2022-11-12T13:35:40;8.13;;;3.95;;
7605;SDS011;3844;53.360;9.738;2022-11-12T13:37:45;7.97;;;4.13;;
7605;SDS011;3844;53.360;9.738;2022-11-12T13:39:52;12.52;;;5.38;;
7605;SDS011;3844;53.360;9.738;2022-11-12T13:41:55;9.32;;;4.78;;
7605;SDS011;3844;53.360;9.738;2022-11-12T13:44:17;6.93;;;3.88;;
7605;SDS011;3844;53.360;9.738;2022-11-12T13:46:25;7.32;;;4.00;;
7605;SDS011;3844;53.360;9.738;2022-11-12T13:48:35;8.93;;;4.10;;
7605;SDS011;3844;53.360;9.738;2022-11-12T13:50:48;7.78;;;4.10;;
7605;SDS011;3844;53.360;9.738;2022-11-12T13:52:51;7.30;;;3.67;;
7605;SDS011;3844;53.360;9.738;2022-11-12T13:57:25;11.07;;;5.10;;
7605;SDS011;3844;53.360;9.738;2022-11-12T13:59:27;8.23;;;4.20;;
7605;SDS011;3844;53.360;9.738;2022-11-12T14:01:28;8.88;;;4.13;;
7605;SDS011;3844;53.360;9.738;2022-11-12T14:03:43;7.30;;;3.90;;
7605;SDS011;3844;53.360;9.738;2022-11-12T14:05:47;7.40;;;3.60;;
7605;SDS011;3844;53.360;9.738;2022-11-12T14:10:21;7.95;;;4.22;;
7605;SDS011;3844;53.360;9.738;2022-11-12T14:12:36;9.50;;;4.70;;